sensor_id;sensor_type;location;lat;lon;timestamp;pressure;altitude;pressure_sealevel;temperature;humidity
54600;BME280;40500;51.084;16.958;2022-12-29T00:02:15;100038.41;;;7.17;100.00
54600;BME280;40500;51.084;16.958;2022-12-29T00:05:12;100040.17;;;7.13;100.00
54600;BME280;40500;51.084;16.958;2022-12-29T00:08:04;100038.46;;;7.08;100.00
54600;BME280;40500;51.084;16.958;2022-12-29T00:11:02;100034.86;;;7.02;100.00
54600;BME280;40500;51.084;16.958;2022-12-29T00:13:32;100024.81;;;6.96;100.00
54600;BME280;40500;51.084;16.958;2022-12-29T00:16:21;100019.81;;;6.89;100.00
54600;BME280;40500;51.084;16.958;2022-12-29T00:19:15;100013.77;;;6.82;100.00
54600;BME280;40500;51.084;16.958;2022-12-29T00:22:24;100012.42;;;6.73;100.00
54600;BME280;40500;51.084;16.958;2022-12-29T00:25:30;100014.91;;;6.67;100.00
54600;BME280;40500;51.084;16.958;2022-12-29T00:28:37;100014.95;;;6.59;100.00
54600;BME280;40500;51.084;16.958;2022-12-29T00:32:01;100009.92;;;6.56;100.00
54600;BME280;40500;51.084;16.958;2022-12-29T00:34:49;100003.52;;;6.53;100.00
54600;BME280;40500;51.084;16.958;2022-12-29T00:37:46;100001.27;;;6.51;100.00
54600;BME280;40500;51.084;16.958;2022-12-29T00:40:45;99993.98;;;6.47;100.00
54600;BME280;40500;51.084;16.958;2022-12-29T00:43:53;99984.95;;;6.44;100.00
54600;BME280;40500;51.084;16.958;2022-12-29T00:46:43;99976.80;;;6.40;100.00
54600;BME280;40500;51.084;16.958;2022-12-29T00:49:25;99971.78;;;6.36;100.00
54600;BME280;40500;51.084;16.958;2022-12-29T00:52:23;99971.80;;;6.31;100.00
54600;BME280;40500;51.084;16.958;2022-12-29T00:55:24;99973.75;;;6.26;100.00
54600;BME280;40500;51.084;16.958;2022-12-29T00:58:19;99970.12;;;6.20;100.00
54600;BME280;40500;51.084;16.958;2022-12-29T01:01:02;99965.63;;;6.17;100.00
54600;BME280;40500;51.084;16.958;2022-12-29T01:04:02;99959.39;;;6.14;100.00
54600;BME280;40500;51.084;16.958;2022-12-29T01:06:58;99956.09;;;6.10;100.00
54600;BME280;40500;51.084;16.958;2022-12-29T01:09:53;99951.23;;;6.07;100.00
54600;BME280;40500;51.084;16.958;2022-12-29T01:13:02;99954.38;;;6.05;100.00
54600;BME280;40500;51.084;16.958;2022-12-29T01:15:54;99956.48;;;6.03;100.00
54600;BME280;40500;51.084;16.958;2022-12-29T01:18:48;99961.52;;;6.04;100.00
54600;BME280;40500;51.084;16.958;2022-12-29T01:21:24;99952.46;;;6.05;100.00
54600;BME280;40500;51.084;16.958;2022-12-29T01:24:18;99944.46;;;6.07;100.00
54600;BME280;40500;51.084;16.958;2022-12-29T01:27:10;99947.25;;;6.08;100.00
54600;BME280;40500;51.084;16.958;2022-12-29T01:30:11;99947.42;;;6.07;100.00
54600;BME280;40500;51.084;16.958;2022-12-29T01:32:56;99946.73;;;6.08;100.00
54600;BME280;40500;51.084;16.958;2022-12-29T01:35:50;99947.77;;;6.08;100.00
54600;BME280;40500;51.084;16.958;2022-12-29T01:38:42;99946.73;;;6.08;100.00
54600;BME280;40500;51.084;16.958;2022-12-29T01:41:15;99942.20;;;6.09;100.00
54600;BME280;40500;51.084;16.958;2022-12-29T01:47:46;99932.59;;;6.18;100.00
54600;BME280;40500;51.084;16.958;2022-12-29T01:50:43;99932.22;;;6.20;100.00
54600;BME280;40500;51.084;16.958;2022-12-29T01:53:35;99926.45;;;6.23;100.00
54600;BME280;40500;51.084;16.958;2022-12-29T01:56:29;99917.92;;;6.28;100.00
54600;BME280;40500;51.084;16.958;2022-12-29T01:59:08;99911.98;;;6.32;100.00
54600;BME280;40500;51.084;16.958;2022-12-29T02:02:04;99901.34;;;6.37;100.00
54600;BME280;40500;51.084;16.958;2022-12-29T02:05:08;99901.17;;;6.38;100.00
54600;BME280;40500;51.084;16.958;2022-12-29T02:08:05;99899.23;;;6.40;100.00
54600;BME280;40500;51.084;16.958;2022-12-29T02:10:59;99891.38;;;6.44;100.00
54600;BME280;40500;51.084;16.958;2022-12-29T02:13:53;99891.54;;;6.47;100.00
54600;BME280;40500;51.084;16.958;2022-12-29T02:16:58;99882.83;;;6.49;100.00
54600;BME280;40500;51.084;16.958;2022-12-29T02:20:33;99887.50;;;6.50;100.00
54600;BME280;40500;51.084;16.958;2022-12-29T02:23:44;99886.80;;;6.52;100.00
54600;BME280;40500;51.084;16.958;2022-12-29T02:26:51;99881.91;;;6.52;100.00
54600;BME280;40500;51.084;16.958;2022-12-29T02:30:11;99884.02;;;6.51;100.00
54600;BME280;40500;51.084;16.958;2022-12-29T02:33:17;99893.75;;;6.52;100.00
54600;BME280;40500;51.084;16.958;2022-12-29T02:36:05;99887.83;;;6.54;100.00
54600;BME280;40500;51.084;16.958;2022-12-29T02:39:02;99881.91;;;6.54;100.00
54600;BME280;40500;51.084;16.958;2022-12-29T02:42:05;99882.60;;;6.55;100.00
54600;BME280;40500;51.084;16.958;2022-12-29T02:45:06;99872.16;;;6.57;100.00
54600;BME280;40500;51.084;16.958;2022-12-29T02:48:02;99868.50;;;6.57;100.00
54600;BME280;40500;51.084;16.958;2022-12-29T02:50:41;99868.17;;;6.54;100.00
54600;BME280;40500;51.084;16.958;2022-12-29T02:53:39;99869.40;;;6.51;100.00
54600;BME280;40500;51.084;16.958;2022-12-29T02:56:39;99865.25;;;6.49;100.00
54600;BME280;40500;51.084;16.958;2022-12-29T02:59:34;99860.55;;;6.48;100.00
54600;BME280;40500;51.084;16.958;2022-12-29T03:02:44;99856.92;;;6.47;100.00
54600;BME280;40500;51.084;16.958;2022-12-29T03:05:57;99855.52;;;6.48;100.00
54600;BME280;40500;51.084;16.958;2022-12-29T03:09:11;99851.16;;;6.49;100.00
54600;BME280;40500;51.084;16.958;2022-12-29T03:12:11;99846.44;;;6.54;100.00
54600;BME280;40500;51.084;16.958;2022-12-29T03:15:12;99847.97;;;6.58;100.00
54600;BME280;40500;51.084;16.958;2022-12-29T03:18:10;99849.85;;;6.61;100.00
54600;BME280;40500;51.084;16.958;2022-12-29T03:21:05;99841.64;;;6.63;100.00
54600;BME280;40500;51.084;16.958;2022-12-29T03:23:57;99838.15;;;6.66;100.00
54600;BME280;40500;51.084;16.958;2022-12-29T03:26:52;99849.80;;;6.68;100.00
54600;BME280;40500;51.084;16.958;2022-12-29T03:29:50;99857.42;;;6.70;100.00
54600;BME280;40500;51.084;16.958;2022-12-29T03:32:59;99860.93;;;6.66;100.00
54600;BME280;40500;51.084;16.958;2022-12-29T03:35:55;99860.11;;;6.61;100.00
54600;BME280;40500;51.084;16.958;2022-12-29T03:38:57;99866.42;;;6.54;100.00
54600;BME280;40500;51.084;16.958;2022-12-29T03:41:32;99859.71;;;6.45;100.00
54600;BME280;40500;51.084;16.958;2022-12-29T03:44:35;99864.80;;;6.40;100.00
54600;BME280;40500;51.084;16.958;2022-12-29T03:47:37;99871.63;;;6.33;100.00
54600;BME280;40500;51.084;16.958;2022-12-29T03:50:29;99868.88;;;6.30;100.00
54600;BME280;40500;51.084;16.958;2022-12-29T03:53:29;99869.61;;;6.26;100.00
54600;BME280;40500;51.084;16.958;2022-12-29T03:56:32;99880.92;;;6.22;100.00
54600;BME280;40500;51.084;16.958;2022-12-29T03:59:08;99887.36;;;6.22;100.00
54600;BME280;40500;51.084;16.958;2022-12-29T04:02:04;99884.75;;;6.22;100.00
54600;BME280;40500;51.084;16.958;2022-12-29T04:05:01;99881.09;;;6.21;100.00
54600;BME280;40500;51.084;16.958;2022-12-29T04:07:52;99882.48;;;6.23;100.00
54600;BME280;40500;51.084;16.958;2022-12-29T04:10:42;99870.30;;;6.24;100.00
54600;BME280;40500;51.084;16.958;2022-12-29T04:13:32;99869.61;;;6.24;100.00
54600;BME280;40500;51.084;16.958;2022-12-29T04:16:22;99856.05;;;6.25;100.00
54600;BME280;40500;51.084;16.958;2022-12-29T04:19:12;99842.48;;;6.26;100.00
54600;BME280;40500;51.084;16.958;2022-12-29T04:22:07;99835.86;;;6.26;100.00
54600;BME280;40500;51.084;16.958;2022-12-29T04:25:01;99835.16;;;6.28;100.00
54600;BME280;40500;51.084;16.958;2022-12-29T04:27:51;99827.68;;;6.29;100.00
54600;BME280;40500;51.084;16.958;2022-12-29T04:30:47;99826.95;;;6.31;100.00
54600;BME280;40500;51.084;16.958;2022-12-29T04:33:39;99821.55;;;6.34;100.00
54600;BME280;40500;51.084;16.958;2022-12-29T04:36:34;99820.30;;;6.38;100.00
54600;BME280;40500;51.084;16.958;2022-12-29T04:39:27;99817.13;;;6.43;100.00
54600;BME280;40500;51.084;16.958;2022-12-29T04:42:19;99818.66;;;6.48;100.00
54600;BME280;40500;51.084;16.958;2022-12-29T04:45:15;99819.30;;;6.52;100.00
54600;BME280;40500;51.084;16.958;2022-12-29T04:48:10;99814.74;;;6.56;100.00
54600;BME280;40500;51.084;16.958;2022-12-29T04:51:04;99812.26;;;6.61;100.00
54600;BME280;40500;51.084;16.958;2022-12-29T04:53:58;99808.39;;;6.67;100.00
54600;BME280;40500;51.084;16.958;2022-12-29T04:56:51;99808.67;;;6.74;100.00
54600;BME280;40500;51.084;16.958;2022-12-29T04:59:45;99806.01;;;6.80;100.00
54600;BME280;40500;51.084;16.958;2022-12-29T05:02:37;99802.84;;;6.83;100.00
54600;BME280;40500;51.084;16.958;2022-12-29T05:05:27;99805.74;;;6.87;100.00
54600;BME280;40500;51.084;16.958;2022-12-29T05:08:18;99806.23;;;6.90;100.00
54600;BME280;40500;51.084;16.958;2022-12-29T05:10:59;99802.39;;;6.93;100.00
54600;BME280;40500;51.084;16.958;2022-12-29T05:13:59;99800.97;;;6.95;100.00
54600;BME280;40500;51.084;16.958;2022-12-29T05:16:36;99799.17;;;7.00;100.00
54600;BME280;40500;51.084;16.958;2022-12-29T05:19:34;99792.70;;;7.03;100.00
54600;BME280;40500;51.084;16.958;2022-12-29T05:22:26;99793.70;;;7.07;100.00
54600;BME280;40500;51.084;16.958;2022-12-29T05:25:27;99782.87;;;7.11;100.00
54600;BME280;40500;51.084;16.958;2022-12-29T05:28:20;99777.77;;;7.15;100.00
54600;BME280;40500;51.084;16.958;2022-12-29T05:31:15;99773.90;;;7.17;100.00
54600;BME280;40500;51.084;16.958;2022-12-29T05:34:20;99766.25;;;7.16;100.00
54600;BME280;40500;51.084;16.958;2022-12-29T05:37:22;99770.98;;;7.14;100.00
54600;BME280;40500;51.084;16.958;2022-12-29T05:40:16;99767.72;;;7.10;100.00
54600;BME280;40500;51.084;16.958;2022-12-29T05:43:14;99760.80;;;7.06;100.00
54600;BME280;40500;51.084;16.958;2022-12-29T05:46:10;99757.52;;;7.04;100.00
54600;BME280;40500;51.084;16.958;2022-12-29T05:49:08;99760.48;;;7.05;100.00
54600;BME280;40500;51.084;16.958;2022-12-29T05:51:57;99757.88;;;7.04;100.00
54600;BME280;40500;51.084;16.958;2022-12-29T05:54:48;99760.11;;;7.05;100.00
54600;BME280;40500;51.084;16.958;2022-12-29T05:57:43;99766.20;;;7.06;100.00
54600;BME280;40500;51.084;16.958;2022-12-29T06:00:38;99767.27;;;7.04;100.00
54600;BME280;40500;51.084;16.958;2022-12-29T06:03:32;99768.86;;;7.03;100.00
54600;BME280;40500;51.084;16.958;2022-12-29T06:06:22;99769.23;;;7.00;100.00
54600;BME280;40500;51.084;16.958;2022-12-29T06:09:15;99766.64;;;6.98;100.00
54600;BME280;40500;51.084;16.958;2022-12-29T06:11:53;99764.23;;;6.96;100.00
54600;BME280;40500;51.084;16.958;2022-12-29T06:14:27;99761.83;;;6.93;100.00
54600;BME280;40500;51.084;16.958;2022-12-29T06:17:26;99756.79;;;6.92;100.00
54600;BME280;40500;51.084;16.958;2022-12-29T06:20:19;99753.48;;;6.91;100.00
54600;BME280;40500;51.084;16.958;2022-12-29T06:23:13;99753.84;;;6.91;100.00
54600;BME280;40500;51.084;16.958;2022-12-29T06:26:06;99755.41;;;6.92;100.00
54600;BME280;40500;51.084;16.958;2022-12-29T06:29:02;99751.58;;;6.91;100.00
54600;BME280;40500;51.084;16.958;2022-12-29T06:31:55;99749.84;;;6.91;100.00
54600;BME280;40500;51.084;16.958;2022-12-29T06:34:49;99746.71;;;6.92;100.00
54600;BME280;40500;51.084;16.958;2022-12-29T06:37:41;99756.11;;;6.91;100.00
54600;BME280;40500;51.084;16.958;2022-12-29T06:40:14;99762.36;;;6.91;100.00
54600;BME280;40500;51.084;16.958;2022-12-29T06:43:15;99760.76;;;6.95;100.00
54600;BME280;40500;51.084;16.958;2022-12-29T06:46:02;99763.88;;;6.97;100.00
54600;BME280;40500;51.084;16.958;2022-12-29T06:51:57;99767.73;;;7.09;100.00
54600;BME280;40500;51.084;16.958;2022-12-29T06:54:41;99765.02;;;7.16;100.00
54600;BME280;40500;51.084;16.958;2022-12-29T06:57:31;99768.77;;;7.24;100.00
54600;BME280;40500;51.084;16.958;2022-12-29T07:00:24;99772.02;;;7.28;100.00
54600;BME280;40500;51.084;16.958;2022-12-29T07:02:58;99771.42;;;7.35;100.00
54600;BME280;40500;51.084;16.958;2022-12-29T07:05:53;99769.38;;;7.44;100.00
54600;BME280;40500;51.084;16.958;2022-12-29T07:08:49;99773.25;;;7.53;100.00
54600;BME280;40500;51.084;16.958;2022-12-29T07:11:32;99777.70;;;7.60;100.00
54600;BME280;40500;51.084;16.958;2022-12-29T07:14:23;99774.31;;;7.66;100.00
54600;BME280;40500;51.084;16.958;2022-12-29T07:17:31;99772.73;;;7.78;100.00
54600;BME280;40500;51.084;16.958;2022-12-29T07:20:27;99772.73;;;7.91;100.00
54600;BME280;40500;51.084;16.958;2022-12-29T07:23:20;99770.87;;;7.99;100.00
54600;BME280;40500;51.084;16.958;2022-12-29T07:26:16;99768.36;;;8.03;100.00
54600;BME280;40500;51.084;16.958;2022-12-29T07:29:11;99763.64;;;8.04;100.00
54600;BME280;40500;51.084;16.958;2022-12-29T07:32:08;99763.48;;;8.02;100.00
54600;BME280;40500;51.084;16.958;2022-12-29T07:34:41;99771.27;;;8.06;100.00
54600;BME280;40500;51.084;16.958;2022-12-29T07:37:43;99767.09;;;8.17;100.00
54600;BME280;40500;51.084;16.958;2022-12-29T07:40:45;99769.90;;;8.26;100.00
54600;BME280;40500;51.084;16.958;2022-12-29T07:43:43;99764.48;;;8.37;100.00
54600;BME280;40500;51.084;16.958;2022-12-29T07:46:54;99767.05;;;8.42;100.00
54600;BME280;40500;51.084;16.958;2022-12-29T07:49:26;99761.95;;;8.44;100.00
54600;BME280;40500;51.084;16.958;2022-12-29T07:51:58;99761.86;;;8.50;100.00
54600;BME280;40500;51.084;16.958;2022-12-29T07:54:29;99761.44;;;8.54;100.00
54600;BME280;40500;51.084;16.958;2022-12-29T07:56:59;99762.21;;;8.59;100.00
54600;BME280;40500;51.084;16.958;2022-12-29T07:59:27;99764.42;;;8.62;100.00
54600;BME280;40500;51.084;16.958;2022-12-29T08:02:18;99764.71;;;8.65;100.00
54600;BME280;40500;51.084;16.958;2022-12-29T08:04:48;99768.34;;;8.68;100.00
54600;BME280;40500;51.084;16.958;2022-12-29T08:07:17;99766.36;;;8.70;100.00
54600;BME280;40500;51.084;16.958;2022-12-29T08:09:48;99766.83;;;8.74;100.00
54600;BME280;40500;51.084;16.958;2022-12-29T08:12:19;99771.13;;;8.77;100.00
54600;BME280;40500;51.084;16.958;2022-12-29T08:14:57;99775.95;;;8.81;100.00
54600;BME280;40500;51.084;16.958;2022-12-29T08:17:25;99776.20;;;8.85;100.00
54600;BME280;40500;51.084;16.958;2022-12-29T08:20:00;99780.72;;;8.88;100.00
54600;BME280;40500;51.084;16.958;2022-12-29T08:22:52;99779.83;;;8.89;100.00
54600;BME280;40500;51.084;16.958;2022-12-29T08:25:23;99782.61;;;8.89;100.00
54600;BME280;40500;51.084;16.958;2022-12-29T08:27:54;99781.77;;;8.88;100.00
54600;BME280;40500;51.084;16.958;2022-12-29T08:30:47;99782.50;;;8.85;100.00
54600;BME280;40500;51.084;16.958;2022-12-29T08:33:35;99780.80;;;8.83;100.00
54600;BME280;40500;51.084;16.958;2022-12-29T08:36:06;99781.18;;;8.81;100.00
54600;BME280;40500;51.084;16.958;2022-12-29T08:38:48;99775.14;;;8.78;100.00
54600;BME280;40500;51.084;16.958;2022-12-29T08:41:18;99771.52;;;8.76;100.00
54600;BME280;40500;51.084;16.958;2022-12-29T08:43:48;99772.64;;;8.71;100.00
54600;BME280;40500;51.084;16.958;2022-12-29T08:46:21;99779.54;;;8.66;100.00
54600;BME280;40500;51.084;16.958;2022-12-29T08:48:53;99779.45;;;8.61;100.00
54600;BME280;40500;51.084;16.958;2022-12-29T08:51:31;99784.63;;;8.55;100.00
54600;BME280;40500;51.084;16.958;2022-12-29T08:54:06;99787.16;;;8.49;100.00
54600;BME280;40500;51.084;16.958;2022-12-29T08:56:36;99791.03;;;8.47;100.00
54600;BME280;40500;51.084;16.958;2022-12-29T08:59:07;99793.31;;;8.48;100.00
54600;BME280;40500;51.084;16.958;2022-12-29T09:01:37;99799.42;;;8.47;100.00
54600;BME280;40500;51.084;16.958;2022-12-29T09:04:15;99800.33;;;8.46;100.00
54600;BME280;40500;51.084;16.958;2022-12-29T09:06:46;99800.99;;;8.47;100.00
54600;BME280;40500;51.084;16.958;2022-12-29T09:09:19;99798.67;;;8.49;100.00
54600;BME280;40500;51.084;16.958;2022-12-29T09:11:52;99796.05;;;8.50;100.00
54600;BME280;40500;51.084;16.958;2022-12-29T09:14:25;99796.21;;;8.51;100.00
54600;BME280;40500;51.084;16.958;2022-12-29T09:16:55;99800.22;;;8.51;100.00
54600;BME280;40500;51.084;16.958;2022-12-29T09:19:41;99798.28;;;8.52;100.00
54600;BME280;40500;51.084;16.958;2022-12-29T09:22:09;99795.44;;;8.55;100.00
54600;BME280;40500;51.084;16.958;2022-12-29T09:24:39;99797.35;;;8.56;100.00
54600;BME280;40500;51.084;16.958;2022-12-29T09:27:08;99801.38;;;8.55;100.00
54600;BME280;40500;51.084;16.958;2022-12-29T09:29:35;99802.08;;;8.55;100.00
54600;BME280;40500;51.084;16.958;2022-12-29T09:32:04;99816.16;;;8.57;100.00
54600;BME280;40500;51.084;16.958;2022-12-29T09:34:36;99807.05;;;8.60;100.00
54600;BME280;40500;51.084;16.958;2022-12-29T09:37:06;99793.55;;;8.64;100.00
54600;BME280;40500;51.084;16.958;2022-12-29T09:39:37;99798.20;;;8.77;100.00
54600;BME280;40500;51.084;16.958;2022-12-29T09:42:35;99802.55;;;8.96;100.00
54600;BME280;40500;51.084;16.958;2022-12-29T09:45:15;99800.39;;;9.09;100.00
54600;BME280;40500;51.084;16.958;2022-12-29T09:47:45;99791.11;;;9.19;100.00
54600;BME280;40500;51.084;16.958;2022-12-29T09:50:24;99785.42;;;9.24;100.00
54600;BME280;40500;51.084;16.958;2022-12-29T09:53:23;99779.60;;;9.26;100.00
54600;BME280;40500;51.084;16.958;2022-12-29T09:55:56;99777.10;;;9.29;100.00
54600;BME280;40500;51.084;16.958;2022-12-29T09:58:30;99769.56;;;9.30;100.00
54600;BME280;40500;51.084;16.958;2022-12-29T10:01:07;99767.08;;;9.32;100.00
54600;BME280;40500;51.084;16.958;2022-12-29T10:03:57;99763.52;;;9.35;100.00
54600;BME280;40500;51.084;16.958;2022-12-29T10:06:35;99755.98;;;9.37;100.00
54600;BME280;40500;51.084;16.958;2022-12-29T10:09:37;99746.48;;;9.39;100.00
54600;BME280;40500;51.084;16.958;2022-12-29T10:12:25;99754.81;;;9.42;100.00
54600;BME280;40500;51.084;16.958;2022-12-29T10:15:04;99746.86;;;9.46;100.00
54600;BME280;40500;51.084;16.958;2022-12-29T10:17:47;99750.05;;;9.52;99.83
54600;BME280;40500;51.084;16.958;2022-12-29T10:20:30;99745.24;;;9.57;99.51
54600;BME280;40500;51.084;16.958;2022-12-29T10:23:18;99753.34;;;9.61;98.93
54600;BME280;40500;51.084;16.958;2022-12-29T10:26:01;99753.55;;;9.67;98.73
54600;BME280;40500;51.084;16.958;2022-12-29T10:28:52;99746.61;;;9.73;97.91
54600;BME280;40500;51.084;16.958;2022-12-29T10:31:40;99748.44;;;9.77;96.31
54600;BME280;40500;51.084;16.958;2022-12-29T10:34:36;99745.38;;;9.81;96.84
54600;BME280;40500;51.084;16.958;2022-12-29T10:37:11;99744.40;;;9.85;97.40
54600;BME280;40500;51.084;16.958;2022-12-29T10:40:17;99743.08;;;9.89;97.97
54600;BME280;40500;51.084;16.958;2022-12-29T10:43:22;99734.28;;;9.92;97.58
54600;BME280;40500;51.084;16.958;2022-12-29T10:46:10;99733.92;;;9.92;97.48
54600;BME280;40500;51.084;16.958;2022-12-29T10:49:00;99737.39;;;9.93;96.77
54600;BME280;40500;51.084;16.958;2022-12-29T10:51:51;99742.57;;;9.96;95.91
54600;BME280;40500;51.084;16.958;2022-12-29T10:54:38;99736.73;;;9.99;94.24
54600;BME280;40500;51.084;16.958;2022-12-29T10:57:25;99740.86;;;10.01;94.42
54600;BME280;40500;51.084;16.958;2022-12-29T10:59:59;99732.75;;;10.04;93.26
54600;BME280;40500;51.084;16.958;2022-12-29T11:02:51;99743.64;;;10.10;93.40
54600;BME280;40500;51.084;16.958;2022-12-29T11:05:52;99735.63;;;10.15;93.14
54600;BME280;40500;51.084;16.958;2022-12-29T11:08:35;99735.36;;;10.19;93.01
54600;BME280;40500;51.084;16.958;2022-12-29T11:11:33;99731.77;;;10.23;93.41
54600;BME280;40500;51.084;16.958;2022-12-29T11:14:33;99732.88;;;10.27;93.41
54600;BME280;40500;51.084;16.958;2022-12-29T11:17:29;99731.56;;;10.33;93.17
54600;BME280;40500;51.084;16.958;2022-12-29T11:20:26;99727.59;;;10.37;93.08
54600;BME280;40500;51.084;16.958;2022-12-29T11:22:59;99726.90;;;10.43;93.25
54600;BME280;40500;51.084;16.958;2022-12-29T11:25:32;99727.29;;;10.48;93.31
54600;BME280;40500;51.084;16.958;2022-12-29T11:28:24;99728.58;;;10.53;93.24
54600;BME280;40500;51.084;16.958;2022-12-29T11:31:02;99721.13;;;10.56;92.72
54600;BME280;40500;51.084;16.958;2022-12-29T11:33:35;99717.05;;;10.58;91.82
54600;BME280;40500;51.084;16.958;2022-12-29T11:36:25;99714.35;;;10.61;90.88
54600;BME280;40500;51.084;16.958;2022-12-29T11:38:59;99722.01;;;10.63;90.15
54600;BME280;40500;51.084;16.958;2022-12-29T11:41:40;99708.19;;;10.62;90.48
54600;BME280;40500;51.084;16.958;2022-12-29T11:44:43;99707.84;;;10.63;91.09
54600;BME280;40500;51.084;16.958;2022-12-29T11:47:30;99704.54;;;10.61;91.84
54600;BME280;40500;51.084;16.958;2022-12-29T11:50:24;99702.79;;;10.61;93.47
54600;BME280;40500;51.084;16.958;2022-12-29T11:53:21;99707.86;;;10.61;93.71
54600;BME280;40500;51.084;16.958;2022-12-29T11:55:58;99708.32;;;10.64;93.46
54600;BME280;40500;51.084;16.958;2022-12-29T11:58:32;99704.77;;;10.65;92.92
54600;BME280;40500;51.084;16.958;2022-12-29T12:01:30;99706.84;;;10.66;92.09
54600;BME280;40500;51.084;16.958;2022-12-29T12:04:08;99710.56;;;10.65;91.26
54600;BME280;40500;51.084;16.958;2022-12-29T12:06:52;99711.79;;;10.65;90.67
54600;BME280;40500;51.084;16.958;2022-12-29T12:09:28;99708.36;;;10.62;90.95
54600;BME280;40500;51.084;16.958;2022-12-29T12:12:32;99705.64;;;10.59;90.76
54600;BME280;40500;51.084;16.958;2022-12-29T12:15:27;99699.29;;;10.55;90.80
54600;BME280;40500;51.084;16.958;2022-12-29T12:18:05;99701.52;;;10.50;91.56
54600;BME280;40500;51.084;16.958;2022-12-29T12:20:44;99703.53;;;10.47;91.87
54600;BME280;40500;51.084;16.958;2022-12-29T12:23:30;99702.19;;;10.45;92.12
54600;BME280;40500;51.084;16.958;2022-12-29T12:26:19;99692.21;;;10.44;92.63
54600;BME280;40500;51.084;16.958;2022-12-29T12:28:57;99695.75;;;10.43;92.43
54600;BME280;40500;51.084;16.958;2022-12-29T12:31:44;99692.98;;;10.42;92.36
54600;BME280;40500;51.084;16.958;2022-12-29T12:34:22;99683.21;;;10.40;92.53
54600;BME280;40500;51.084;16.958;2022-12-29T12:37:37;99682.05;;;10.39;93.23
54600;BME280;40500;51.084;16.958;2022-12-29T12:43:38;99681.67;;;10.39;93.26
54600;BME280;40500;51.084;16.958;2022-12-29T12:46:30;99675.03;;;10.38;93.18
54600;BME280;40500;51.084;16.958;2022-12-29T12:49:38;99678.88;;;10.39;93.20
54600;BME280;40500;51.084;16.958;2022-12-29T12:52:37;99671.30;;;10.41;93.39
54600;BME280;40500;51.084;16.958;2022-12-29T12:55:41;99674.66;;;10.46;92.79
54600;BME280;40500;51.084;16.958;2022-12-29T12:58:43;99661.95;;;10.57;92.37
54600;BME280;40500;51.084;16.958;2022-12-29T13:01:36;99661.11;;;10.80;91.49
54600;BME280;40500;51.084;16.958;2022-12-29T13:04:32;99663.05;;;11.03;90.27
54600;BME280;40500;51.084;16.958;2022-12-29T13:07:16;99665.94;;;11.24;89.24
54600;BME280;40500;51.084;16.958;2022-12-29T13:10:08;99660.92;;;11.39;87.76
54600;BME280;40500;51.084;16.958;2022-12-29T13:12:51;99669.95;;;11.31;86.94
54600;BME280;40500;51.084;16.958;2022-12-29T13:15:37;99671.61;;;11.51;86.82
54600;BME280;40500;51.084;16.958;2022-12-29T13:18:23;99668.98;;;12.00;84.87
54600;BME280;40500;51.084;16.958;2022-12-29T13:20:59;99664.20;;;12.47;81.77
54600;BME280;40500;51.084;16.958;2022-12-29T13:23:35;99660.81;;;12.78;80.22
54600;BME280;40500;51.084;16.958;2022-12-29T13:26:14;99665.15;;;12.98;79.01
54600;BME280;40500;51.084;16.958;2022-12-29T13:29:16;99657.16;;;13.51;77.22
54600;BME280;40500;51.084;16.958;2022-12-29T13:31:54;99662.75;;;13.78;73.63
54600;BME280;40500;51.084;16.958;2022-12-29T13:34:39;99664.09;;;13.67;71.69
54600;BME280;40500;51.084;16.958;2022-12-29T13:37:17;99676.91;;;12.99;72.70
54600;BME280;40500;51.084;16.958;2022-12-29T13:39:57;99680.77;;;12.51;75.28
54600;BME280;40500;51.084;16.958;2022-12-29T13:42:30;99680.66;;;12.18;77.26
54600;BME280;40500;51.084;16.958;2022-12-29T13:45:09;99688.34;;;11.99;78.68
54600;BME280;40500;51.084;16.958;2022-12-29T13:48:06;99696.33;;;11.79;80.29
54600;BME280;40500;51.084;16.958;2022-12-29T13:51:03;99702.98;;;11.62;81.47
54600;BME280;40500;51.084;16.958;2022-12-29T13:54:10;99707.23;;;11.50;82.72
54600;BME280;40500;51.084;16.958;2022-12-29T13:59:54;99715.45;;;11.27;85.12
54600;BME280;40500;51.084;16.958;2022-12-29T14:02:50;99711.54;;;11.18;85.78
54600;BME280;40500;51.084;16.958;2022-12-29T14:05:32;99714.47;;;11.07;86.58
54600;BME280;40500;51.084;16.958;2022-12-29T14:08:13;99716.55;;;11.02;86.76
54600;BME280;40500;51.084;16.958;2022-12-29T14:10:48;99715.89;;;10.94;87.85
54600;BME280;40500;51.084;16.958;2022-12-29T14:13:24;99716.27;;;10.87;89.15
54600;BME280;40500;51.084;16.958;2022-12-29T14:16:05;99720.33;;;10.79;90.88
54600;BME280;40500;51.084;16.958;2022-12-29T14:19:18;99730.75;;;10.69;92.38
54600;BME280;40500;51.084;16.958;2022-12-29T14:22:11;99722.66;;;10.58;94.02
54600;BME280;40500;51.084;16.958;2022-12-29T14:28:26;99727.51;;;10.33;96.83
54600;BME280;40500;51.084;16.958;2022-12-29T14:31:36;99726.40;;;10.21;97.68
54600;BME280;40500;51.084;16.958;2022-12-29T14:34:34;99728.02;;;10.12;98.10
54600;BME280;40500;51.084;16.958;2022-12-29T14:37:26;99725.00;;;10.06;98.08
54600;BME280;40500;51.084;16.958;2022-12-29T14:40:18;99729.24;;;9.98;98.29
54600;BME280;40500;51.084;16.958;2022-12-29T14:43:21;99727.88;;;9.89;98.72
54600;BME280;40500;51.084;16.958;2022-12-29T14:45:56;99730.59;;;9.78;99.27
54600;BME280;40500;51.084;16.958;2022-12-29T14:48:40;99726.14;;;9.65;99.82
54600;BME280;40500;51.084;16.958;2022-12-29T14:51:34;99730.31;;;9.52;100.00
54600;BME280;40500;51.084;16.958;2022-12-29T14:54:43;99739.92;;;9.35;100.00
54600;BME280;40500;51.084;16.958;2022-12-29T14:57:29;99733.27;;;9.20;100.00
54600;BME280;40500;51.084;16.958;2022-12-29T15:00:23;99737.41;;;9.05;100.00
54600;BME280;40500;51.084;16.958;2022-12-29T15:03:04;99734.17;;;8.94;100.00